Time,TemperatureF,DewpointF,PressureIn,WindDirection,WindDirectionDegrees,WindSpeedMPH,WindSpeedGustMPH,Humidity,HourlyPrecipIn,Conditions,Clouds,dailyrainin,SolarRadiationWatts/m^2,SoftwareType,DateUTC
2013-02-14 00:21:00,37.0,26.0,-100.00,North,7,5.0,16.0,64,0.00,,,0.00,0.000000,,2013-02-14 09:21:00,
2013-02-14 00:31:00,37.0,26.0,-100.00,North,7,5.0,16.0,64,0.00,,,0.00,0.000000,,2013-02-14 09:31:00,
2013-02-14 00:41:00,37.0,26.0,-100.00,North,7,5.0,16.0,64,0.00,,,0.00,0.000000,,2013-02-14 09:41:00,
2013-02-14 00:51:00,37.0,26.0,-100.00,North,7,5.0,16.0,64,0.00,,,0.00,0.000000,,2013-02-14 09:51:00,
2013-02-14 01:21:00,38.0,24.0,-100.00,East,92,5.0,15.0,57,0.00,,,0.00,0.000000,,2013-02-14 10:21:00,
2013-02-14 01:31:00,38.0,24.0,-100.00,East,92,5.0,15.0,57,0.00,,,0.00,0.000000,,2013-02-14 10:31:00,
2013-02-14 01:41:00,38.0,24.0,-100.00,East,92,5.0,15.0,57,0.00,,,0.00,0.000000,,2013-02-14 10:41:00,
2013-02-14 01:52:00,38.0,24.0,-100.00,East,92,5.0,15.0,57,0.00,,,0.00,0.000000,,2013-02-14 10:52:00,
2013-02-14 02:21:00,38.0,22.0,-100.00,NE,40,5.0,19.0,52,0.00,,,0.00,0.000000,,2013-02-14 11:21:00,
2013-02-14 02:31:00,38.0,22.0,-100.00,NE,40,5.0,19.0,52,0.00,,,0.00,0.000000,,2013-02-14 11:31:00,
2013-02-14 02:42:00,38.0,22.0,-100.00,NE,40,5.0,19.0,52,0.00,,,0.00,0.000000,,2013-02-14 11:42:00,
2013-02-14 02:52:00,38.0,22.0,-100.00,NE,40,5.0,19.0,52,0.00,,,0.00,0.000000,,2013-02-14 11:52:00,
2013-02-14 03:22:00,38.0,21.0,-100.00,NE,34,5.0,14.0,50,0.00,,,0.00,0.000000,,2013-02-14 12:22:00,
2013-02-14 03:32:00,38.0,21.0,-100.00,NE,34,5.0,14.0,50,0.00,,,0.00,0.000000,,2013-02-14 12:32:00,
2013-02-14 03:42:00,38.0,21.0,-100.00,NE,34,5.0,14.0,50,0.00,,,0.00,0.000000,,2013-02-14 12:42:00,
2013-02-14 03:53:00,38.0,21.0,-100.00,NE,34,5.0,14.0,50,0.00,,,0.00,0.000000,,2013-02-14 12:53:00,
2013-02-14 04:21:00,38.0,23.0,-100.00,North,4,4.0,12.0,54,0.00,,,0.00,0.000000,,2013-02-14 13:21:00,
2013-02-14 04:31:00,38.0,23.0,-100.00,North,4,4.0,12.0,54,0.00,,,0.00,0.000000,,2013-02-14 13:31:00,
2013-02-14 04:41:00,38.0,23.0,-100.00,North,4,4.0,12.0,54,0.00,,,0.00,0.000000,,2013-02-14 13:41:00,
2013-02-14 04:51:00,38.0,23.0,-100.00,North,4,4.0,12.0,54,0.00,,,0.00,0.000000,,2013-02-14 13:51:00,
2013-02-14 05:21:00,38.0,23.0,-100.00,North,353,4.0,14.0,55,0.00,,,0.00,0.000000,,2013-02-14 14:21:00,
2013-02-14 05:31:00,38.0,23.0,-100.00,North,353,4.0,14.0,55,0.00,,,0.00,0.000000,,2013-02-14 14:31:00,
2013-02-14 05:41:00,38.0,23.0,-100.00,North,353,4.0,14.0,55,0.00,,,0.00,0.000000,,2013-02-14 14:41:00,
2013-02-14 05:52:00,38.0,23.0,-100.00,North,353,4.0,14.0,55,0.00,,,0.00,0.000000,,2013-02-14 14:52:00,
2013-02-14 06:21:00,37.0,24.0,-100.00,North,8,3.0,10.0,60,0.00,,,0.00,0.000000,,2013-02-14 15:21:00,
2013-02-14 06:31:00,37.0,24.0,-100.00,North,8,3.0,10.0,60,0.00,,,0.00,0.000000,,2013-02-14 15:31:00,
2013-02-14 06:41:00,37.0,24.0,-100.00,North,8,3.0,10.0,60,0.00,,,0.00,0.000000,,2013-02-14 15:41:00,
2013-02-14 06:51:00,37.0,24.0,-100.00,North,8,3.0,10.0,60,0.00,,,0.00,0.000000,,2013-02-14 15:51:00,
2013-02-14 07:21:00,38.0,26.0,-100.00,NNE,14,4.0,13.0,61,0.00,,,0.00,0.000000,,2013-02-14 16:21:00,
2013-02-14 07:31:00,38.0,26.0,-100.00,NNE,14,4.0,13.0,61,0.00,,,0.00,0.000000,,2013-02-14 16:31:00,
2013-02-14 07:41:00,38.0,26.0,-100.00,NNE,14,4.0,13.0,61,0.00,,,0.00,0.000000,,2013-02-14 16:41:00,
2013-02-14 07:51:00,38.0,26.0,-100.00,NNE,14,4.0,13.0,61,0.00,,,0.00,0.000000,,2013-02-14 16:51:00,
2013-02-14 08:21:00,37.0,25.0,-100.00,NNE,20,5.0,11.0,61,0.00,,,0.00,0.000000,,2013-02-14 17:21:00,
2013-02-14 08:31:00,37.0,25.0,-100.00,NNE,20,5.0,11.0,61,0.00,,,0.00,0.000000,,2013-02-14 17:31:00,
2013-02-14 08:41:00,37.0,25.0,-100.00,NNE,20,5.0,11.0,61,0.00,,,0.00,0.000000,,2013-02-14 17:41:00,
2013-02-14 08:52:00,37.0,25.0,-100.00,NNE,20,5.0,11.0,61,0.00,,,0.00,0.000000,,2013-02-14 17:52:00,
2013-02-14 09:22:00,35.0,29.0,-100.00,NNE,15,4.0,12.0,78,0.00,,,0.00,1.000000,,2013-02-14 18:22:00,
2013-02-14 09:31:00,35.0,29.0,-100.00,NNE,15,4.0,12.0,78,0.00,,,0.00,1.000000,,2013-02-14 18:31:00,
2013-02-14 09:41:00,35.0,29.0,-100.00,NNE,15,4.0,12.0,78,0.00,,,0.00,1.000000,,2013-02-14 18:41:00,
2013-02-14 09:51:00,35.0,29.0,-100.00,NNE,15,4.0,12.0,78,0.00,,,0.00,1.000000,,2013-02-14 18:51:00,
2013-02-14 10:21:00,35.0,32.0,-100.00,NNE,18,5.0,11.0,87,0.00,,,0.00,6.000000,,2013-02-14 19:21:00,
2013-02-14 10:31:00,35.0,32.0,-100.00,NNE,18,5.0,11.0,87,0.00,,,0.00,6.000000,,2013-02-14 19:31:00,
2013-02-14 10:41:00,35.0,32.0,-100.00,NNE,18,5.0,11.0,87,0.00,,,0.00,6.000000,,2013-02-14 19:41:00,
2013-02-14 10:51:00,35.0,32.0,-100.00,NNE,18,5.0,11.0,87,0.00,,,0.00,6.000000,,2013-02-14 19:51:00,
2013-02-14 11:21:00,35.0,32.0,-100.00,NNE,16,5.0,14.0,88,0.04,,,0.04,19.000000,,2013-02-14 20:21:00,
2013-02-14 11:31:00,35.0,32.0,-100.00,NNE,16,5.0,14.0,88,0.04,,,0.04,19.000000,,2013-02-14 20:31:00,
2013-02-14 11:41:00,35.0,32.0,-100.00,NNE,16,5.0,14.0,88,0.04,,,0.04,19.000000,,2013-02-14 20:41:00,
2013-02-14 11:52:00,35.0,32.0,-100.00,NNE,16,5.0,14.0,88,0.04,,,0.04,19.000000,,2013-02-14 20:52:00,
2013-02-14 12:21:00,36.0,32.0,-100.00,NNE,25,4.0,14.0,85,0.06,,,0.10,65.000000,,2013-02-14 21:21:00,
2013-02-14 12:31:00,36.0,32.0,-100.00,NNE,25,4.0,14.0,85,0.06,,,0.10,65.000000,,2013-02-14 21:31:00,
2013-02-14 12:41:00,36.0,32.0,-100.00,NNE,25,4.0,14.0,85,0.06,,,0.10,65.000000,,2013-02-14 21:41:00,
2013-02-14 12:51:00,36.0,32.0,-100.00,NNE,25,4.0,14.0,85,0.06,,,0.10,65.000000,,2013-02-14 21:51:00,
2013-02-14 13:21:00,36.0,32.0,-100.00,NNE,18,4.0,11.0,84,0.06,,,0.16,54.000000,,2013-02-14 22:21:00,
2013-02-14 13:31:00,36.0,32.0,-100.00,NNE,18,4.0,11.0,84,0.06,,,0.16,54.000000,,2013-02-14 22:31:00,
2013-02-14 13:41:00,36.0,32.0,-100.00,NNE,18,4.0,11.0,84,0.06,,,0.16,54.000000,,2013-02-14 22:41:00,
2013-02-14 13:51:00,36.0,32.0,-100.00,NNE,18,4.0,11.0,84,0.06,,,0.16,54.000000,,2013-02-14 22:51:00,
2013-02-14 14:21:00,38.0,32.0,-100.00,NW,314,1.0,7.0,80,0.04,,,0.20,100.000000,,2013-02-14 23:21:00,
2013-02-14 14:31:00,38.0,32.0,-100.00,NW,314,1.0,7.0,80,0.04,,,0.20,100.000000,,2013-02-14 23:31:00,
2013-02-14 14:41:00,38.0,32.0,-100.00,NW,314,1.0,7.0,80,0.04,,,0.20,100.000000,,2013-02-14 23:41:00,
2013-02-14 14:52:00,38.0,32.0,-100.00,NW,314,1.0,7.0,80,0.04,,,0.20,100.000000,,2013-02-14 23:52:00,
2013-02-14 15:21:00,38.0,34.0,-100.00,South,190,1.0,6.0,84,0.03,,,0.23,113.000000,,2013-02-15 00:21:00,
2013-02-14 15:31:00,38.0,34.0,-100.00,South,190,1.0,6.0,84,0.03,,,0.23,113.000000,,2013-02-15 00:31:00,
2013-02-14 15:41:00,38.0,34.0,-100.00,South,190,1.0,6.0,84,0.03,,,0.23,113.000000,,2013-02-15 00:41:00,
2013-02-14 15:51:00,38.0,34.0,-100.00,South,190,1.0,6.0,84,0.03,,,0.23,113.000000,,2013-02-15 00:51:00,
2013-02-14 16:21:00,40.0,33.0,-100.00,SSE,165,2.0,4.0,77,0.01,,,0.24,112.000000,,2013-02-15 01:21:00,
2013-02-14 16:31:00,40.0,33.0,-100.00,SSE,165,2.0,4.0,77,0.01,,,0.24,112.000000,,2013-02-15 01:31:00,
2013-02-14 16:41:00,40.0,33.0,-100.00,SSE,165,2.0,4.0,77,0.01,,,0.24,112.000000,,2013-02-15 01:41:00,
2013-02-14 16:51:00,40.0,33.0,-100.00,SSE,165,2.0,4.0,77,0.01,,,0.24,112.000000,,2013-02-15 01:51:00,
2013-02-14 17:21:00,37.0,30.0,-100.00,North,2,1.0,4.0,76,0.00,,,0.24,72.000000,,2013-02-15 02:21:00,
2013-02-14 17:31:00,37.0,30.0,-100.00,North,2,1.0,4.0,76,0.00,,,0.24,72.000000,,2013-02-15 02:31:00,
2013-02-14 17:41:00,37.0,30.0,-100.00,North,2,1.0,4.0,76,0.00,,,0.24,72.000000,,2013-02-15 02:41:00,
2013-02-14 17:52:00,37.0,30.0,-100.00,North,2,1.0,4.0,76,0.00,,,0.24,72.000000,,2013-02-15 02:52:00,
2013-02-14 18:21:00,33.0,30.0,-100.00,WSW,240,1.0,5.0,88,0.01,,,0.25,10.000000,,2013-02-15 03:21:00,
2013-02-14 18:32:00,33.0,30.0,-100.00,WSW,240,1.0,5.0,88,0.01,,,0.25,10.000000,,2013-02-15 03:32:00,
2013-02-14 18:41:00,33.0,30.0,-100.00,WSW,240,1.0,5.0,88,0.01,,,0.25,10.000000,,2013-02-15 03:41:00,
2013-02-14 18:51:00,33.0,30.0,-100.00,WSW,240,1.0,5.0,88,0.01,,,0.25,10.000000,,2013-02-15 03:51:00,
2013-02-14 19:21:00,32.0,30.0,-100.00,SW,225,1.0,4.0,92,0.00,,,0.25,1.000000,,2013-02-15 04:21:00,
2013-02-14 19:31:00,32.0,30.0,-100.00,SW,225,1.0,4.0,92,0.00,,,0.25,1.000000,,2013-02-15 04:31:00,
2013-02-14 19:41:00,32.0,30.0,-100.00,SW,225,1.0,4.0,92,0.00,,,0.25,1.000000,,2013-02-15 04:41:00,
2013-02-14 19:51:00,32.0,30.0,-100.00,SW,225,1.0,4.0,92,0.00,,,0.25,1.000000,,2013-02-15 04:51:00,
2013-02-14 20:22:00,32.0,30.0,-100.00,South,180,1.0,6.0,92,0.00,,,0.25,0.000000,,2013-02-15 05:22:00,
2013-02-14 20:32:00,32.0,30.0,-100.00,South,180,1.0,6.0,92,0.00,,,0.25,0.000000,,2013-02-15 05:32:00,
2013-02-14 20:41:00,32.0,30.0,-100.00,South,180,1.0,6.0,92,0.00,,,0.25,0.000000,,2013-02-15 05:41:00,
2013-02-14 20:52:00,32.0,30.0,-100.00,South,180,1.0,6.0,92,0.00,,,0.25,0.000000,,2013-02-15 05:52:00,
2013-02-14 21:21:00,32.0,29.0,-100.00,East,94,1.0,5.0,90,0.00,,,-99.99,0.000000,,2013-02-15 06:21:00,
2013-02-14 21:31:00,32.0,29.0,-100.00,East,94,1.0,5.0,90,0.00,,,-99.99,0.000000,,2013-02-15 06:31:00,
2013-02-14 21:42:00,32.0,29.0,-100.00,East,94,1.0,5.0,90,0.00,,,-99.99,0.000000,,2013-02-15 06:42:00,
2013-02-14 21:51:00,32.0,29.0,-100.00,East,94,1.0,5.0,90,0.00,,,-99.99,0.000000,,2013-02-15 06:51:00,
2013-02-14 22:21:00,31.0,30.0,-100.00,SSW,203,1.0,4.0,97,0.00,,,0.25,0.000000,,2013-02-15 07:21:00,
2013-02-14 22:31:00,31.0,30.0,-100.00,SSW,203,1.0,4.0,97,0.00,,,0.25,0.000000,,2013-02-15 07:31:00,
2013-02-14 22:41:00,31.0,30.0,-100.00,SSW,203,1.0,4.0,97,0.00,,,0.25,0.000000,,2013-02-15 07:41:00,
2013-02-14 22:52:00,31.0,30.0,-100.00,SSW,203,1.0,4.0,97,0.00,,,0.25,0.000000,,2013-02-15 07:52:00,
2013-02-14 23:21:00,31.0,30.0,-100.00,East,79,1.0,4.0,96,0.00,,,-99.99,0.000000,,2013-02-15 08:21:00,
2013-02-14 23:31:00,31.0,30.0,-100.00,East,79,1.0,4.0,96,0.00,,,-99.99,0.000000,,2013-02-15 08:31:00,
2013-02-14 23:41:00,31.0,30.0,-100.00,East,79,1.0,4.0,96,0.00,,,-99.99,0.000000,,2013-02-15 08:41:00,
2013-02-14 23:52:00,31.0,30.0,-100.00,East,79,1.0,4.0,96,0.00,,,-99.99,0.000000,,2013-02-15 08:52:00,